Terminal Aerodrome Forecast
Issued by NWS

Home | Current Version | Previous Version | Text Only | Print | Product List | Glossary On
Versions: 1 2 3 4 5 6 7 8 9 10 11 12 13 14 15 16 17 18 19 20 21
000
FTAK31 PAJN 231420 AAA
TAFAGY
TAF AMD
PAGY 231420Z 2314/2412 VRB05KT P6SM VCSH FEW005 BKN017 OVC025
     FM231500 03012KT P6SM SCT025 OVC070
     FM232100 03015G25KT P6SM SCT080
     FM240600 04012KT P6SM SCT120
      AMD LTD TO CLD VIS AND WIND=

USA.gov is the U.S. government's official web portal to all federal, state and local government web resources and services.